Segovia, Texas
Current Conditions -  °F | °C
As of 5:51 AM on Friday 19 Dec 2014 (Local Time) from KJCT Reporting Station
Overcast Overcast  
Wind Chill: 46°   Ceiling: 700
Heat Index: 49°   Visibility: 8mi
Dew Point: 47°   Wind: 7mph
Humidity: 93%   Direction: 60°ENE
Pressure: 30.1"   Gusts: NA
Location:  30.4083°N, 99.5794°W
Report Text: KJCT 191151Z AUTO 06006KT 8SM OVC007 09/08 A3010 RMK AO2 SLP170 60013 70013 T00940083 10133 20094 51011
Loading
Personal Weather Stations






























Interactive Weather Map New forecast layout! Learn more

10-Day Weather Forecast

Advertisements
Track Severe Weather on mobile